sensor_id;sensor_type;location;lat;lon;timestamp;pressure;altitude;pressure_sealevel;temperature
31528;BMP280;10206;48.012;10.030;2022-09-30T00:01:49;93816.38;;;11.58
31528;BMP280;10206;48.012;10.030;2022-09-30T00:04:25;93821.25;;;11.48
31528;BMP280;10206;48.012;10.030;2022-09-30T00:06:52;93826.94;;;11.41
31528;BMP280;10206;48.012;10.030;2022-09-30T00:09:18;93827.16;;;11.33
31528;BMP280;10206;48.012;10.030;2022-09-30T00:11:45;93835.50;;;11.35
31528;BMP280;10206;48.012;10.030;2022-09-30T00:14:18;93834.53;;;11.42
31528;BMP280;10206;48.012;10.030;2022-09-30T00:16:45;93835.97;;;11.43
31528;BMP280;10206;48.012;10.030;2022-09-30T00:19:12;93830.72;;;11.59
31528;BMP280;10206;48.012;10.030;2022-09-30T00:21:39;93833.94;;;11.44
31528;BMP280;10206;48.012;10.030;2022-09-30T00:24:05;93845.69;;;11.46
31528;BMP280;10206;48.012;10.030;2022-09-30T00:26:32;93848.78;;;11.52
31528;BMP280;10206;48.012;10.030;2022-09-30T00:29:00;93854.50;;;11.45
31528;BMP280;10206;48.012;10.030;2022-09-30T00:31:29;93848.31;;;11.44
31528;BMP280;10206;48.012;10.030;2022-09-30T00:33:55;93857.09;;;11.43
31528;BMP280;10206;48.012;10.030;2022-09-30T00:39:27;93850.81;;;11.29
31528;BMP280;10206;48.012;10.030;2022-09-30T00:42:01;93858.50;;;11.21
31528;BMP280;10206;48.012;10.030;2022-09-30T00:44:45;93861.91;;;11.10
31528;BMP280;10206;48.012;10.030;2022-09-30T00:49:52;93862.97;;;11.05
31528;BMP280;10206;48.012;10.030;2022-09-30T00:52:19;93859.31;;;11.00
31528;BMP280;10206;48.012;10.030;2022-09-30T00:54:45;93858.69;;;11.01
31528;BMP280;10206;48.012;10.030;2022-09-30T00:57:11;93854.16;;;10.94
31528;BMP280;10206;48.012;10.030;2022-09-30T00:59:44;93852.03;;;10.93
31528;BMP280;10206;48.012;10.030;2022-09-30T01:02:12;93853.69;;;10.86
31528;BMP280;10206;48.012;10.030;2022-09-30T01:04:40;93851.56;;;10.96
31528;BMP280;10206;48.012;10.030;2022-09-30T01:07:08;93844.50;;;11.15
31528;BMP280;10206;48.012;10.030;2022-09-30T01:09:36;93852.63;;;10.91
31528;BMP280;10206;48.012;10.030;2022-09-30T01:12:05;93841.41;;;10.64
31528;BMP280;10206;48.012;10.030;2022-09-30T01:14:34;93848.91;;;10.75
31528;BMP280;10206;48.012;10.030;2022-09-30T01:17:23;93849.72;;;10.66
31528;BMP280;10206;48.012;10.030;2022-09-30T01:28:47;93868.59;;;10.74
31528;BMP280;10206;48.012;10.030;2022-09-30T01:31:42;93876.53;;;10.81
31528;BMP280;10206;48.012;10.030;2022-09-30T01:34:16;93877.50;;;10.86
31528;BMP280;10206;48.012;10.030;2022-09-30T01:36:52;93883.22;;;10.90
31528;BMP280;10206;48.012;10.030;2022-09-30T01:42:08;93876.41;;;10.68
31528;BMP280;10206;48.012;10.030;2022-09-30T01:47:25;93874.06;;;10.74
31528;BMP280;10206;48.012;10.030;2022-09-30T01:52:46;93878.91;;;10.75
31528;BMP280;10206;48.012;10.030;2022-09-30T01:55:27;93888.41;;;10.74
31528;BMP280;10206;48.012;10.030;2022-09-30T02:00:57;93889.34;;;10.79
31528;BMP280;10206;48.012;10.030;2022-09-30T02:03:33;93880.84;;;10.84
31528;BMP280;10206;48.012;10.030;2022-09-30T02:06:07;93882.88;;;10.84
31528;BMP280;10206;48.012;10.030;2022-09-30T02:08:43;93885.25;;;10.89
31528;BMP280;10206;48.012;10.030;2022-09-30T02:11:33;93889.97;;;10.89
31528;BMP280;10206;48.012;10.030;2022-09-30T02:14:15;93890.50;;;10.97
31528;BMP280;10206;48.012;10.030;2022-09-30T02:16:53;93894.16;;;10.90
31528;BMP280;10206;48.012;10.030;2022-09-30T02:19:34;93889.78;;;10.96
31528;BMP280;10206;48.012;10.030;2022-09-30T02:22:30;93884.34;;;11.08
31528;BMP280;10206;48.012;10.030;2022-09-30T02:25:05;93884.59;;;11.12
31528;BMP280;10206;48.012;10.030;2022-09-30T02:27:40;93881.97;;;11.14
31528;BMP280;10206;48.012;10.030;2022-09-30T02:30:08;93892.91;;;11.14
31528;BMP280;10206;48.012;10.030;2022-09-30T02:32:47;93893.63;;;11.26
31528;BMP280;10206;48.012;10.030;2022-09-30T02:35:31;93892.81;;;11.24
31528;BMP280;10206;48.012;10.030;2022-09-30T02:38:02;93889.41;;;11.02
31528;BMP280;10206;48.012;10.030;2022-09-30T02:40:40;93897.72;;;11.04
31528;BMP280;10206;48.012;10.030;2022-09-30T02:43:08;93896.78;;;11.11
31528;BMP280;10206;48.012;10.030;2022-09-30T02:46:06;93901.41;;;10.97
31528;BMP280;10206;48.012;10.030;2022-09-30T02:54:27;93907.88;;;11.25
31528;BMP280;10206;48.012;10.030;2022-09-30T02:59:32;93906.06;;;11.18
31528;BMP280;10206;48.012;10.030;2022-09-30T03:01:58;93912.38;;;11.20
31528;BMP280;10206;48.012;10.030;2022-09-30T03:04:28;93917.69;;;11.18
31528;BMP280;10206;48.012;10.030;2022-09-30T03:06:55;93915.53;;;11.05
31528;BMP280;10206;48.012;10.030;2022-09-30T03:09:26;93921.34;;;11.11
31528;BMP280;10206;48.012;10.030;2022-09-30T03:11:54;93916.53;;;11.21
31528;BMP280;10206;48.012;10.030;2022-09-30T03:14:57;93921.00;;;11.05
31528;BMP280;10206;48.012;10.030;2022-09-30T03:29:03;93934.91;;;10.88
31528;BMP280;10206;48.012;10.030;2022-09-30T03:32:02;93943.63;;;10.96
31528;BMP280;10206;48.012;10.030;2022-09-30T03:34:48;93944.28;;;10.85
31528;BMP280;10206;48.012;10.030;2022-09-30T03:42:40;93949.50;;;10.81
31528;BMP280;10206;48.012;10.030;2022-09-30T03:47:44;93950.41;;;10.74
31528;BMP280;10206;48.012;10.030;2022-09-30T03:50:16;93947.25;;;10.77
31528;BMP280;10206;48.012;10.030;2022-09-30T03:52:43;93951.16;;;10.86
31528;BMP280;10206;48.012;10.030;2022-09-30T03:55:10;93950.78;;;10.80
31528;BMP280;10206;48.012;10.030;2022-09-30T03:57:36;93958.84;;;10.57
31528;BMP280;10206;48.012;10.030;2022-09-30T04:00:04;93962.47;;;10.71
31528;BMP280;10206;48.012;10.030;2022-09-30T04:02:31;93970.91;;;10.75
31528;BMP280;10206;48.012;10.030;2022-09-30T04:04:57;93968.41;;;10.67
31528;BMP280;10206;48.012;10.030;2022-09-30T04:07:24;93962.72;;;10.75
31528;BMP280;10206;48.012;10.030;2022-09-30T04:09:50;93960.41;;;10.81
31528;BMP280;10206;48.012;10.030;2022-09-30T04:12:16;93969.34;;;10.93
31528;BMP280;10206;48.012;10.030;2022-09-30T04:14:42;93973.09;;;10.88
31528;BMP280;10206;48.012;10.030;2022-09-30T04:17:08;93976.69;;;10.69
31528;BMP280;10206;48.012;10.030;2022-09-30T04:19:35;93974.88;;;10.62
31528;BMP280;10206;48.012;10.030;2022-09-30T04:22:05;93975.53;;;10.72
31528;BMP280;10206;48.012;10.030;2022-09-30T04:24:31;93976.75;;;10.39
31528;BMP280;10206;48.012;10.030;2022-09-30T04:26:58;93973.16;;;10.67
31528;BMP280;10206;48.012;10.030;2022-09-30T04:29:24;93982.41;;;10.73
31528;BMP280;10206;48.012;10.030;2022-09-30T04:31:50;93974.66;;;10.91
31528;BMP280;10206;48.012;10.030;2022-09-30T04:34:16;93972.97;;;10.86
31528;BMP280;10206;48.012;10.030;2022-09-30T04:36:42;93973.91;;;11.00
31528;BMP280;10206;48.012;10.030;2022-09-30T04:39:09;93973.09;;;10.88
31528;BMP280;10206;48.012;10.030;2022-09-30T04:41:35;93974.25;;;10.73
31528;BMP280;10206;48.012;10.030;2022-09-30T04:44:01;93962.47;;;10.92
31528;BMP280;10206;48.012;10.030;2022-09-30T04:46:32;93963.19;;;10.92
31528;BMP280;10206;48.012;10.030;2022-09-30T04:48:59;93962.13;;;10.97
31528;BMP280;10206;48.012;10.030;2022-09-30T04:51:26;93960.00;;;10.96
31528;BMP280;10206;48.012;10.030;2022-09-30T04:53:52;93963.69;;;10.68
31528;BMP280;10206;48.012;10.030;2022-09-30T04:56:18;93976.53;;;10.77
31528;BMP280;10206;48.012;10.030;2022-09-30T04:58:44;93975.84;;;10.88
31528;BMP280;10206;48.012;10.030;2022-09-30T05:01:15;93980.03;;;10.68
31528;BMP280;10206;48.012;10.030;2022-09-30T05:03:42;93984.63;;;10.65
31528;BMP280;10206;48.012;10.030;2022-09-30T05:06:09;93982.69;;;10.77
31528;BMP280;10206;48.012;10.030;2022-09-30T05:08:36;93981.09;;;10.95
31528;BMP280;10206;48.012;10.030;2022-09-30T05:11:05;93983.44;;;10.89
31528;BMP280;10206;48.012;10.030;2022-09-30T05:13:35;93989.47;;;10.88
31528;BMP280;10206;48.012;10.030;2022-09-30T05:16:02;94001.69;;;10.87
31528;BMP280;10206;48.012;10.030;2022-09-30T05:18:28;93996.19;;;10.75
31528;BMP280;10206;48.012;10.030;2022-09-30T05:20:56;93996.72;;;10.83
31528;BMP280;10206;48.012;10.030;2022-09-30T05:23:23;94003.06;;;10.97
31528;BMP280;10206;48.012;10.030;2022-09-30T05:25:50;93995.63;;;10.77
31528;BMP280;10206;48.012;10.030;2022-09-30T05:28:17;93997.44;;;10.84
31528;BMP280;10206;48.012;10.030;2022-09-30T05:30:44;94011.19;;;10.86
31528;BMP280;10206;48.012;10.030;2022-09-30T05:33:11;94013.31;;;10.66
31528;BMP280;10206;48.012;10.030;2022-09-30T05:35:39;94017.53;;;10.79
31528;BMP280;10206;48.012;10.030;2022-09-30T05:38:06;94020.00;;;10.75
31528;BMP280;10206;48.012;10.030;2022-09-30T05:40:36;94018.72;;;10.76
31528;BMP280;10206;48.012;10.030;2022-09-30T05:43:04;94018.06;;;10.66
31528;BMP280;10206;48.012;10.030;2022-09-30T05:45:31;94026.72;;;10.83
31528;BMP280;10206;48.012;10.030;2022-09-30T05:47:57;94034.53;;;10.77
31528;BMP280;10206;48.012;10.030;2022-09-30T05:50:24;94034.41;;;10.45
31528;BMP280;10206;48.012;10.030;2022-09-30T05:52:51;94039.59;;;10.62
31528;BMP280;10206;48.012;10.030;2022-09-30T05:55:18;94044.97;;;10.81
31528;BMP280;10206;48.012;10.030;2022-09-30T05:57:48;94046.31;;;10.91
31528;BMP280;10206;48.012;10.030;2022-09-30T06:00:15;94054.81;;;10.86
31528;BMP280;10206;48.012;10.030;2022-09-30T06:02:41;94058.50;;;11.00
31528;BMP280;10206;48.012;10.030;2022-09-30T06:05:09;94055.88;;;11.02
31528;BMP280;10206;48.012;10.030;2022-09-30T06:07:36;94060.53;;;11.11
31528;BMP280;10206;48.012;10.030;2022-09-30T06:10:05;94065.63;;;11.05
31528;BMP280;10206;48.012;10.030;2022-09-30T06:12:33;94076.53;;;11.05
31528;BMP280;10206;48.012;10.030;2022-09-30T06:14:59;94083.06;;;11.00
31528;BMP280;10206;48.012;10.030;2022-09-30T06:17:25;94083.50;;;10.96
31528;BMP280;10206;48.012;10.030;2022-09-30T06:19:51;94096.41;;;11.17
31528;BMP280;10206;48.012;10.030;2022-09-30T06:22:17;94088.34;;;10.98
31528;BMP280;10206;48.012;10.030;2022-09-30T06:24:44;94085.28;;;10.61
31528;BMP280;10206;48.012;10.030;2022-09-30T06:27:10;94092.00;;;10.91
31528;BMP280;10206;48.012;10.030;2022-09-30T06:29:37;94090.19;;;10.84
31528;BMP280;10206;48.012;10.030;2022-09-30T06:32:03;94091.47;;;11.04
31528;BMP280;10206;48.012;10.030;2022-09-30T06:34:29;94100.19;;;11.12
31528;BMP280;10206;48.012;10.030;2022-09-30T06:36:55;94092.06;;;11.24
31528;BMP280;10206;48.012;10.030;2022-09-30T06:39:21;94098.88;;;11.34
31528;BMP280;10206;48.012;10.030;2022-09-30T06:41:48;94105.56;;;11.43
31528;BMP280;10206;48.012;10.030;2022-09-30T06:44:14;94100.25;;;11.45
31528;BMP280;10206;48.012;10.030;2022-09-30T06:46:40;94104.47;;;11.36
31528;BMP280;10206;48.012;10.030;2022-09-30T06:49:06;94118.00;;;11.34
31528;BMP280;10206;48.012;10.030;2022-09-30T06:51:32;94113.00;;;11.31
31528;BMP280;10206;48.012;10.030;2022-09-30T06:53:59;94113.69;;;11.31
31528;BMP280;10206;48.012;10.030;2022-09-30T06:56:26;94114.41;;;11.32
31528;BMP280;10206;48.012;10.030;2022-09-30T06:58:52;94125.59;;;11.36
31528;BMP280;10206;48.012;10.030;2022-09-30T07:01:18;94130.34;;;11.35
31528;BMP280;10206;48.012;10.030;2022-09-30T07:03:46;94131.63;;;11.34
31528;BMP280;10206;48.012;10.030;2022-09-30T07:06:13;94130.19;;;11.54
31528;BMP280;10206;48.012;10.030;2022-09-30T07:08:40;94135.75;;;11.78
31528;BMP280;10206;48.012;10.030;2022-09-30T07:11:11;94133.72;;;11.78
31528;BMP280;10206;48.012;10.030;2022-09-30T07:13:46;94128.97;;;11.79
31528;BMP280;10206;48.012;10.030;2022-09-30T07:16:15;94134.28;;;11.65
31528;BMP280;10206;48.012;10.030;2022-09-30T07:18:42;94133.50;;;11.74
31528;BMP280;10206;48.012;10.030;2022-09-30T07:21:09;94135.28;;;11.81
31528;BMP280;10206;48.012;10.030;2022-09-30T07:23:37;94132.69;;;11.83
31528;BMP280;10206;48.012;10.030;2022-09-30T07:26:03;94131.59;;;11.77
31528;BMP280;10206;48.012;10.030;2022-09-30T07:28:33;94130.13;;;11.64
31528;BMP280;10206;48.012;10.030;2022-09-30T07:31:05;94133.56;;;11.64
31528;BMP280;10206;48.012;10.030;2022-09-30T07:33:32;94140.19;;;11.61
31528;BMP280;10206;48.012;10.030;2022-09-30T07:35:59;94133.31;;;11.60
31528;BMP280;10206;48.012;10.030;2022-09-30T07:38:29;94142.34;;;11.63
31528;BMP280;10206;48.012;10.030;2022-09-30T07:41:01;94136.19;;;11.41
31528;BMP280;10206;48.012;10.030;2022-09-30T07:43:30;94145.25;;;11.77
31528;BMP280;10206;48.012;10.030;2022-09-30T07:48:36;94143.16;;;11.87
31528;BMP280;10206;48.012;10.030;2022-09-30T07:51:18;94141.53;;;11.72
31528;BMP280;10206;48.012;10.030;2022-09-30T07:53:54;94138.97;;;11.74
31528;BMP280;10206;48.012;10.030;2022-09-30T07:56:21;94142.94;;;11.94
31528;BMP280;10206;48.012;10.030;2022-09-30T07:58:48;94145.19;;;11.98
31528;BMP280;10206;48.012;10.030;2022-09-30T08:01:14;94148.03;;;11.88
31528;BMP280;10206;48.012;10.030;2022-09-30T08:03:42;94159.41;;;12.17
31528;BMP280;10206;48.012;10.030;2022-09-30T08:06:15;94164.59;;;12.13
31528;BMP280;10206;48.012;10.030;2022-09-30T08:08:43;94161.91;;;11.81
31528;BMP280;10206;48.012;10.030;2022-09-30T08:11:10;94167.59;;;11.85
31528;BMP280;10206;48.012;10.030;2022-09-30T08:13:37;94175.53;;;12.02
31528;BMP280;10206;48.012;10.030;2022-09-30T08:16:04;94175.25;;;12.30
31528;BMP280;10206;48.012;10.030;2022-09-30T08:18:30;94168.22;;;12.39
31528;BMP280;10206;48.012;10.030;2022-09-30T08:21:00;94164.66;;;12.25
31528;BMP280;10206;48.012;10.030;2022-09-30T08:23:28;94176.53;;;12.18
31528;BMP280;10206;48.012;10.030;2022-09-30T08:26:04;94172.00;;;12.11
31528;BMP280;10206;48.012;10.030;2022-09-30T08:28:31;94176.91;;;12.35
31528;BMP280;10206;48.012;10.030;2022-09-30T08:31:09;94180.59;;;12.40
31528;BMP280;10206;48.012;10.030;2022-09-30T08:33:35;94185.53;;;12.20
31528;BMP280;10206;48.012;10.030;2022-09-30T08:36:10;94188.91;;;11.98
31528;BMP280;10206;48.012;10.030;2022-09-30T08:38:36;94192.16;;;12.06
31528;BMP280;10206;48.012;10.030;2022-09-30T08:52:26;94190.25;;;12.41
31528;BMP280;10206;48.012;10.030;2022-09-30T08:54:55;94198.00;;;12.44
31528;BMP280;10206;48.012;10.030;2022-09-30T08:57:22;94208.84;;;12.77
31528;BMP280;10206;48.012;10.030;2022-09-30T09:00:00;94207.06;;;12.82
31528;BMP280;10206;48.012;10.030;2022-09-30T09:02:33;94203.97;;;12.76
31528;BMP280;10206;48.012;10.030;2022-09-30T09:05:06;94208.97;;;12.91
31528;BMP280;10206;48.012;10.030;2022-09-30T09:13:37;94216.06;;;12.38
31528;BMP280;10206;48.012;10.030;2022-09-30T09:19:07;94209.94;;;12.84
31528;BMP280;10206;48.012;10.030;2022-09-30T09:21:59;94213.59;;;12.88
31528;BMP280;10206;48.012;10.030;2022-09-30T09:24:38;94216.34;;;13.00
31528;BMP280;10206;48.012;10.030;2022-09-30T09:27:23;94222.53;;;12.77
31528;BMP280;10206;48.012;10.030;2022-09-30T09:30:13;94235.13;;;12.82
31528;BMP280;10206;48.012;10.030;2022-09-30T09:32:41;94242.66;;;13.28
31528;BMP280;10206;48.012;10.030;2022-09-30T09:35:15;94244.31;;;13.10
31528;BMP280;10206;48.012;10.030;2022-09-30T09:37:56;94251.56;;;12.94
31528;BMP280;10206;48.012;10.030;2022-09-30T09:46:49;94263.97;;;13.18
31528;BMP280;10206;48.012;10.030;2022-09-30T09:49:31;94266.56;;;13.39
31528;BMP280;10206;48.012;10.030;2022-09-30T09:54:47;94266.81;;;13.55
31528;BMP280;10206;48.012;10.030;2022-09-30T09:57:18;94279.31;;;13.35
31528;BMP280;10206;48.012;10.030;2022-09-30T09:59:55;94281.81;;;13.31
31528;BMP280;10206;48.012;10.030;2022-09-30T10:02:25;94287.78;;;13.50
31528;BMP280;10206;48.012;10.030;2022-09-30T10:04:52;94293.72;;;13.23
31528;BMP280;10206;48.012;10.030;2022-09-30T10:07:29;94295.41;;;13.05
31528;BMP280;10206;48.012;10.030;2022-09-30T10:10:25;94300.03;;;13.14
31528;BMP280;10206;48.012;10.030;2022-09-30T10:12:51;94308.00;;;13.10
31528;BMP280;10206;48.012;10.030;2022-09-30T10:15:22;94301.34;;;13.37
31528;BMP280;10206;48.012;10.030;2022-09-30T10:17:57;94307.16;;;13.19
31528;BMP280;10206;48.012;10.030;2022-09-30T10:20:28;94311.38;;;13.44
31528;BMP280;10206;48.012;10.030;2022-09-30T10:23:16;94303.38;;;13.48
31528;BMP280;10206;48.012;10.030;2022-09-30T10:31:29;94311.84;;;14.12
31528;BMP280;10206;48.012;10.030;2022-09-30T10:36:40;94299.84;;;14.30
31528;BMP280;10206;48.012;10.030;2022-09-30T10:41:59;94302.50;;;14.17
31528;BMP280;10206;48.012;10.030;2022-09-30T10:44:27;94298.84;;;14.37
31528;BMP280;10206;48.012;10.030;2022-09-30T10:46:59;94309.03;;;14.23
31528;BMP280;10206;48.012;10.030;2022-09-30T10:49:50;94306.09;;;14.07
31528;BMP280;10206;48.012;10.030;2022-09-30T10:52:26;94307.41;;;14.06
31528;BMP280;10206;48.012;10.030;2022-09-30T10:55:04;94301.19;;;13.81
31528;BMP280;10206;48.012;10.030;2022-09-30T10:57:34;94305.59;;;13.74
31528;BMP280;10206;48.012;10.030;2022-09-30T11:00:18;94302.66;;;13.36
31528;BMP280;10206;48.012;10.030;2022-09-30T11:02:56;94303.13;;;13.67
31528;BMP280;10206;48.012;10.030;2022-09-30T11:05:41;94304.81;;;13.25
31528;BMP280;10206;48.012;10.030;2022-09-30T11:08:28;94313.00;;;13.60
31528;BMP280;10206;48.012;10.030;2022-09-30T11:11:35;94319.97;;;13.38
31528;BMP280;10206;48.012;10.030;2022-09-30T11:24:47;94331.28;;;14.04
31528;BMP280;10206;48.012;10.030;2022-09-30T11:33:27;94329.78;;;14.26
31528;BMP280;10206;48.012;10.030;2022-09-30T11:39:19;94327.03;;;14.26
31528;BMP280;10206;48.012;10.030;2022-09-30T11:44:39;94328.50;;;14.52
31528;BMP280;10206;48.012;10.030;2022-09-30T11:47:31;94332.25;;;14.70
31528;BMP280;10206;48.012;10.030;2022-09-30T11:58:10;94335.56;;;15.08
31528;BMP280;10206;48.012;10.030;2022-09-30T12:00:41;94324.09;;;15.38
31528;BMP280;10206;48.012;10.030;2022-09-30T12:03:12;94322.59;;;15.22
31528;BMP280;10206;48.012;10.030;2022-09-30T12:05:47;94321.94;;;15.23
31528;BMP280;10206;48.012;10.030;2022-09-30T12:08:33;94315.88;;;15.25
31528;BMP280;10206;48.012;10.030;2022-09-30T12:11:11;94316.78;;;15.56
31528;BMP280;10206;48.012;10.030;2022-09-30T12:14:41;94316.38;;;15.76
31528;BMP280;10206;48.012;10.030;2022-09-30T12:16:36;94327.66;;;15.95
31528;BMP280;10206;48.012;10.030;2022-09-30T12:19:20;94325.38;;;16.05
31528;BMP280;10206;48.012;10.030;2022-09-30T12:22:06;94328.53;;;16.00
31528;BMP280;10206;48.012;10.030;2022-09-30T12:24:38;94331.59;;;16.06
31528;BMP280;10206;48.012;10.030;2022-09-30T12:27:23;94335.81;;;15.52
31528;BMP280;10206;48.012;10.030;2022-09-30T12:29:58;94337.13;;;15.51
31528;BMP280;10206;48.012;10.030;2022-09-30T12:48:56;94328.16;;;16.34
31528;BMP280;10206;48.012;10.030;2022-09-30T12:51:32;94333.69;;;16.34
31528;BMP280;10206;48.012;10.030;2022-09-30T12:54:17;94325.28;;;16.62
31528;BMP280;10206;48.012;10.030;2022-09-30T12:56:45;94331.69;;;16.50
31528;BMP280;10206;48.012;10.030;2022-09-30T12:59:14;94322.91;;;16.25
31528;BMP280;10206;48.012;10.030;2022-09-30T13:01:42;94322.25;;;16.26
31528;BMP280;10206;48.012;10.030;2022-09-30T13:04:16;94320.91;;;16.56
31528;BMP280;10206;48.012;10.030;2022-09-30T13:09:21;94312.94;;;16.63
31528;BMP280;10206;48.012;10.030;2022-09-30T13:14:39;94313.22;;;16.69
31528;BMP280;10206;48.012;10.030;2022-09-30T13:19:49;94327.28;;;16.90
31528;BMP280;10206;48.012;10.030;2022-09-30T13:38:15;94319.28;;;16.51
31528;BMP280;10206;48.012;10.030;2022-09-30T13:40:52;94317.56;;;16.29
31528;BMP280;10206;48.012;10.030;2022-09-30T13:45:56;94325.78;;;16.13
31528;BMP280;10206;48.012;10.030;2022-09-30T13:48:28;94329.91;;;16.28
31528;BMP280;10206;48.012;10.030;2022-09-30T13:50:57;94333.25;;;16.26
31528;BMP280;10206;48.012;10.030;2022-09-30T13:56:07;94335.53;;;16.16
31528;BMP280;10206;48.012;10.030;2022-09-30T14:10:06;94328.03;;;16.32
31528;BMP280;10206;48.012;10.030;2022-09-30T14:15:45;94332.50;;;16.10
31528;BMP280;10206;48.012;10.030;2022-09-30T14:18:28;94333.47;;;15.88
31528;BMP280;10206;48.012;10.030;2022-09-30T14:23:22;94321.53;;;15.83
31528;BMP280;10206;48.012;10.030;2022-09-30T14:28:51;94328.38;;;15.82
31528;BMP280;10206;48.012;10.030;2022-09-30T14:31:19;94321.53;;;15.83
31528;BMP280;10206;48.012;10.030;2022-09-30T14:33:48;94323.88;;;16.02
31528;BMP280;10206;48.012;10.030;2022-09-30T14:36:17;94324.50;;;16.30
31528;BMP280;10206;48.012;10.030;2022-09-30T14:38:52;94323.81;;;16.16
31528;BMP280;10206;48.012;10.030;2022-09-30T14:41:22;94328.31;;;16.09
31528;BMP280;10206;48.012;10.030;2022-09-30T14:43:57;94330.94;;;15.37
31528;BMP280;10206;48.012;10.030;2022-09-30T14:46:31;94326.25;;;15.40
31528;BMP280;10206;48.012;10.030;2022-09-30T14:49:03;94338.38;;;15.76
31528;BMP280;10206;48.012;10.030;2022-09-30T14:51:40;94341.16;;;16.05
31528;BMP280;10206;48.012;10.030;2022-09-30T14:54:20;94342.19;;;16.11
31528;BMP280;10206;48.012;10.030;2022-09-30T14:56:47;94350.78;;;16.33
31528;BMP280;10206;48.012;10.030;2022-09-30T14:59:20;94346.28;;;15.97
31528;BMP280;10206;48.012;10.030;2022-09-30T15:01:49;94349.53;;;16.07
31528;BMP280;10206;48.012;10.030;2022-09-30T15:04:25;94345.00;;;16.27
31528;BMP280;10206;48.012;10.030;2022-09-30T15:06:54;94351.31;;;16.29
31528;BMP280;10206;48.012;10.030;2022-09-30T15:09:40;94357.78;;;16.07
31528;BMP280;10206;48.012;10.030;2022-09-30T15:12:14;94353.13;;;15.55
31528;BMP280;10206;48.012;10.030;2022-09-30T15:14:52;94350.75;;;15.22
31528;BMP280;10206;48.012;10.030;2022-09-30T15:17:23;94357.72;;;15.50
31528;BMP280;10206;48.012;10.030;2022-09-30T15:19:52;94360.97;;;15.33
31528;BMP280;10206;48.012;10.030;2022-09-30T15:22:25;94357.09;;;15.38
31528;BMP280;10206;48.012;10.030;2022-09-30T15:24:52;94368.38;;;15.31
31528;BMP280;10206;48.012;10.030;2022-09-30T15:27:31;94371.38;;;15.10
31528;BMP280;10206;48.012;10.030;2022-09-30T15:32:37;94377.72;;;15.12
31528;BMP280;10206;48.012;10.030;2022-09-30T15:35:10;94381.78;;;15.11
31528;BMP280;10206;48.012;10.030;2022-09-30T15:37:37;94384.13;;;15.17
31528;BMP280;10206;48.012;10.030;2022-09-30T15:40:11;94379.19;;;15.02
31528;BMP280;10206;48.012;10.030;2022-09-30T15:42:59;94386.56;;;15.11
31528;BMP280;10206;48.012;10.030;2022-09-30T15:45:32;94384.66;;;15.27
31528;BMP280;10206;48.012;10.030;2022-09-30T15:48:01;94387.38;;;15.00
31528;BMP280;10206;48.012;10.030;2022-09-30T15:50:55;94388.69;;;14.62
31528;BMP280;10206;48.012;10.030;2022-09-30T15:55:58;94393.28;;;14.82
31528;BMP280;10206;48.012;10.030;2022-09-30T15:58:38;94397.34;;;14.81
31528;BMP280;10206;48.012;10.030;2022-09-30T16:01:20;94400.28;;;14.35
31528;BMP280;10206;48.012;10.030;2022-09-30T16:14:34;94390.84;;;14.27
31528;BMP280;10206;48.012;10.030;2022-09-30T16:17:05;94381.81;;;14.24
31528;BMP280;10206;48.012;10.030;2022-09-30T16:19:32;94383.97;;;14.14
31528;BMP280;10206;48.012;10.030;2022-09-30T16:21:59;94392.53;;;14.20
31528;BMP280;10206;48.012;10.030;2022-09-30T16:26:54;94394.88;;;13.66
31528;BMP280;10206;48.012;10.030;2022-09-30T16:29:21;94399.41;;;13.73
31528;BMP280;10206;48.012;10.030;2022-09-30T16:31:49;94394.97;;;13.45
31528;BMP280;10206;48.012;10.030;2022-09-30T16:34:27;94384.25;;;13.49
31528;BMP280;10206;48.012;10.030;2022-09-30T16:37:02;94383.28;;;13.33
31528;BMP280;10206;48.012;10.030;2022-09-30T16:39:30;94390.41;;;13.14
31528;BMP280;10206;48.012;10.030;2022-09-30T16:41:56;94396.78;;;12.96
31528;BMP280;10206;48.012;10.030;2022-09-30T16:44:22;94397.72;;;13.00
31528;BMP280;10206;48.012;10.030;2022-09-30T16:46:49;94394.91;;;12.98
31528;BMP280;10206;48.012;10.030;2022-09-30T16:49:18;94399.34;;;12.82
31528;BMP280;10206;48.012;10.030;2022-09-30T16:51:44;94407.44;;;12.80
31528;BMP280;10206;48.012;10.030;2022-09-30T16:54:11;94398.50;;;12.80
31528;BMP280;10206;48.012;10.030;2022-09-30T16:56:38;94404.72;;;12.80
31528;BMP280;10206;48.012;10.030;2022-09-30T16:59:10;94412.59;;;12.65
31528;BMP280;10206;48.012;10.030;2022-09-30T17:01:38;94422.47;;;12.58
31528;BMP280;10206;48.012;10.030;2022-09-30T17:04:04;94425.25;;;12.48
31528;BMP280;10206;48.012;10.030;2022-09-30T17:06:31;94418.69;;;12.42
31528;BMP280;10206;48.012;10.030;2022-09-30T17:08:58;94426.75;;;12.40
31528;BMP280;10206;48.012;10.030;2022-09-30T17:11:29;94427.66;;;12.33
31528;BMP280;10206;48.012;10.030;2022-09-30T17:13:58;94428.38;;;12.33
31528;BMP280;10206;48.012;10.030;2022-09-30T17:16:25;94432.72;;;12.06
31528;BMP280;10206;48.012;10.030;2022-09-30T17:18:51;94436.88;;;12.07
31528;BMP280;10206;48.012;10.030;2022-09-30T17:21:22;94439.38;;;12.03
31528;BMP280;10206;48.012;10.030;2022-09-30T17:23:49;94432.47;;;12.02
31528;BMP280;10206;48.012;10.030;2022-09-30T17:26:16;94436.72;;;11.84
31528;BMP280;10206;48.012;10.030;2022-09-30T17:28:43;94438.19;;;11.75
31528;BMP280;10206;48.012;10.030;2022-09-30T17:31:10;94444.97;;;11.74
31528;BMP280;10206;48.012;10.030;2022-09-30T17:33:38;94445.94;;;11.69
31528;BMP280;10206;48.012;10.030;2022-09-30T17:36:07;94438.94;;;11.66
31528;BMP280;10206;48.012;10.030;2022-09-30T17:38:34;94440.38;;;11.67
31528;BMP280;10206;48.012;10.030;2022-09-30T17:41:01;94446.72;;;11.60
31528;BMP280;10206;48.012;10.030;2022-09-30T17:43:46;94456.50;;;11.53
31528;BMP280;10206;48.012;10.030;2022-09-30T17:46:13;94457.69;;;11.50
31528;BMP280;10206;48.012;10.030;2022-09-30T17:48:44;94452.94;;;11.41
31528;BMP280;10206;48.012;10.030;2022-09-30T17:51:11;94452.53;;;11.35
31528;BMP280;10206;48.012;10.030;2022-09-30T17:53:38;94454.84;;;11.29